Clarence, Illinois
Current Conditions -  °F | °C
As of 3:30 PM on Friday 24 Oct 2014 (Local Time) from KTIP Reporting Station
Clear Clear  
Wind Chill: 71°   Ceiling: Unl
Heat Index: 71°   Visibility: 10mi
Dew Point: 50°   Wind: 8mph
Humidity: 48%   Direction: 240°WSW
Pressure: 30"   Gusts: NA
Location:  40.4466°N, 87.8907°W
Report Text: KTIP 242030Z AUTO 24007KT 10SM CLR 22/10 A3000 RMK AO2 T02150102
Loading
Personal Weather Stations






























Interactive Weather Map
Tropical Storm Tracking
New forecast layout! Learn more

10-Day Weather Forecast

Advertisements
Track Severe Weather on mobile